createdAt,value
2017-10-09T00:00:24.283Z,0
2017-10-09T00:05:29.344Z,0
2017-10-09T00:10:35.072Z,0
2017-10-09T00:15:40.126Z,0
2017-10-09T00:20:45.518Z,0
2017-10-09T00:25:50.285Z,0
2017-10-09T00:30:56.011Z,0
2017-10-09T00:36:00.727Z,0
2017-10-09T00:41:06.454Z,0
2017-10-09T00:46:11.508Z,0
2017-10-09T00:51:16.898Z,0
2017-10-09T00:56:22.622Z,0
2017-10-09T01:01:28.008Z,0
2017-10-09T01:06:33.060Z,0
2017-10-09T01:11:38.785Z,0
2017-10-09T01:16:43.503Z,0
2017-10-09T01:21:48.890Z,0
2017-10-09T01:26:54.290Z,0
2017-10-09T01:31:59.343Z,0
2017-10-09T01:37:05.069Z,0
2017-10-09T01:42:10.460Z,0
2017-10-09T01:47:15.849Z,0
2017-10-09T01:52:20.233Z,0
2017-10-09T01:57:25.626Z,0
2017-10-09T02:02:30.343Z,0
2017-10-09T02:07:35.396Z,0
2017-10-09T02:12:41.120Z,0
2017-10-09T02:17:46.508Z,0
2017-10-09T02:22:51.567Z,0
2017-10-09T02:27:56.623Z,0
2017-10-09T02:33:01.354Z,0
2017-10-09T02:38:06.743Z,0
2017-10-09T02:43:11.473Z,0
2017-10-09T02:48:16.189Z,0
2017-10-09T02:53:21.244Z,0
2017-10-09T02:58:26.295Z,0
2017-10-09T03:03:32.021Z,0
2017-10-09T03:08:37.414Z,0
2017-10-09T03:13:42.468Z,0
2017-10-09T03:18:47.526Z,0
2017-10-09T03:23:52.577Z,0
2017-10-09T03:28:57.980Z,0
2017-10-09T03:34:03.034Z,0
2017-10-09T03:39:08.427Z,0
2017-10-09T03:44:12.480Z,0
2017-10-09T03:49:18.205Z,0
2017-10-09T03:54:23.263Z,0
2017-10-09T03:59:27.984Z,0
2017-10-09T04:04:33.039Z,0
2017-10-09T04:09:39.098Z,0
2017-10-09T04:14:44.153Z,0
2017-10-09T04:19:48.893Z,0
2017-10-09T04:24:54.283Z,0
2017-10-09T04:29:59.337Z,0
2017-10-09T04:35:04.393Z,0
2017-10-09T04:40:09.806Z,0
2017-10-09T04:45:14.536Z,0
2017-10-09T04:50:19.940Z,0
2017-10-09T04:55:25.331Z,0
2017-10-09T05:00:29.733Z,0
2017-10-09T05:05:34.791Z,0
2017-10-09T05:10:38.850Z,0
2017-10-09T05:15:44.234Z,0
2017-10-09T05:20:49.963Z,0
2017-10-09T05:25:55.355Z,0
2017-10-09T05:31:00.071Z,0
2017-10-09T05:36:05.558Z,0
2017-10-09T05:41:11.214Z,0
2017-10-09T05:46:15.600Z,0
2017-10-09T05:51:21.324Z,0
2017-10-09T05:56:26.046Z,0
2017-10-09T06:01:31.103Z,0
2017-10-09T06:06:36.827Z,0
2017-10-09T06:11:41.887Z,1
2017-10-09T06:16:47.682Z,1
2017-10-09T06:21:53.406Z,2
2017-10-09T06:26:58.801Z,2
2017-10-09T06:32:03.852Z,2
2017-10-09T06:37:08.905Z,3
2017-10-09T06:42:14.307Z,4
2017-10-09T06:47:19.363Z,1
2017-10-09T06:52:24.089Z,1
2017-10-09T06:57:28.477Z,2
2017-10-09T07:02:33.868Z,1
2017-10-09T07:07:39.259Z,1
2017-10-09T07:12:44.651Z,3
2017-10-09T07:17:50.374Z,5
2017-10-09T07:22:55.435Z,7
2017-10-09T07:28:00.492Z,9
2017-10-09T07:33:05.552Z,10
2017-10-09T07:38:10.605Z,6
2017-10-09T07:43:15.010Z,5
2017-10-09T07:48:20.715Z,7
2017-10-09T07:53:25.774Z,6
2017-10-09T07:58:30.833Z,5
2017-10-09T08:03:35.890Z,6
2017-10-09T08:08:40.619Z,10
2017-10-09T08:13:45.679Z,9
2017-10-09T08:18:50.403Z,7
2017-10-09T08:23:55.459Z,6
2017-10-09T08:29:00.565Z,2
2017-10-09T08:34:05.625Z,2
2017-10-09T08:39:10.018Z,1
2017-10-09T08:44:14.408Z,2
2017-10-09T08:49:18.799Z,2
2017-10-09T08:54:23.524Z,3
2017-10-09T08:59:28.912Z,5
2017-10-09T09:04:34.308Z,9
2017-10-09T09:09:40.039Z,8
2017-10-09T09:14:45.095Z,16
2017-10-09T09:19:49.817Z,5
2017-10-09T09:24:54.874Z,6
2017-10-09T09:30:00.601Z,8
2017-10-09T09:35:05.661Z,15
2017-10-09T09:40:10.721Z,4
2017-10-09T09:45:16.447Z,6
2017-10-09T09:50:21.506Z,7
2017-10-09T09:55:26.565Z,4
2017-10-09T10:00:31.624Z,8
2017-10-09T10:05:36.021Z,15
2017-10-09T10:10:40.078Z,13
2017-10-09T10:15:45.139Z,11
2017-10-09T10:20:50.355Z,19
2017-10-09T10:25:55.080Z,8
2017-10-09T10:30:59.807Z,14
2017-10-09T10:36:05.540Z,6
2017-10-09T10:41:10.933Z,8
2017-10-09T10:46:16.241Z,18
2017-10-09T10:51:21.632Z,16
2017-10-09T10:56:26.689Z,13
2017-10-09T11:01:32.083Z,7
2017-10-09T11:06:37.145Z,13
2017-10-09T11:11:42.876Z,18
2017-10-09T11:16:48.271Z,14
2017-10-09T11:21:53.668Z,12
2017-10-09T11:26:59.399Z,12
2017-10-09T11:32:04.458Z,12
2017-10-09T11:37:09.187Z,9
2017-10-09T11:42:14.249Z,9
2017-10-09T11:47:19.979Z,6
2017-10-09T11:52:24.705Z,3
2017-10-09T11:57:29.775Z,5
2017-10-09T12:02:34.501Z,5
2017-10-09T12:07:39.562Z,4
2017-10-09T12:12:44.623Z,2
2017-10-09T12:17:49.688Z,3
2017-10-09T12:22:54.749Z,8
2017-10-09T12:28:00.148Z,7
2017-10-09T12:33:04.870Z,6
2017-10-09T12:38:09.600Z,8
2017-10-09T12:43:14.661Z,4
2017-10-09T12:48:19.720Z,4
2017-10-09T12:53:24.450Z,3
2017-10-09T12:58:29.178Z,5
2017-10-09T13:03:34.265Z,4
2017-10-09T13:08:38.977Z,4
2017-10-09T13:13:44.383Z,4
2017-10-09T13:18:49.799Z,4
2017-10-09T13:23:55.193Z,5
2017-10-09T13:29:00.604Z,2
2017-10-09T13:34:05.668Z,3
2017-10-09T13:39:11.404Z,3
2017-10-09T13:44:16.459Z,4
2017-10-09T13:49:21.195Z,5
2017-10-09T13:54:26.930Z,5
2017-10-09T13:59:31.318Z,3
2017-10-09T14:04:36.047Z,2
2017-10-09T14:09:40.774Z,1
2017-10-09T14:14:46.166Z,1
2017-10-09T14:19:51.241Z,1
2017-10-09T14:24:57.309Z,1
2017-10-09T14:30:02.704Z,1
2017-10-09T14:40:12.326Z,0
2017-10-09T14:45:18.101Z,0
2017-10-09T14:50:23.762Z,0
2017-10-09T14:55:28.852Z,0
2017-10-09T15:00:34.359Z,0
2017-10-09T15:05:40.386Z,0
2017-10-09T15:10:45.536Z,0
2017-10-09T15:15:50.750Z,0
2017-10-09T15:20:55.915Z,0
2017-10-09T15:26:01.453Z,0
2017-10-09T15:31:07.014Z,1
2017-10-09T15:36:12.803Z,0
2017-10-09T15:41:18.254Z,0
2017-10-09T15:46:23.337Z,0
2017-10-09T15:51:28.784Z,0
2017-10-09T15:56:33.867Z,0
2017-10-09T16:01:39.296Z,0
2017-10-09T16:06:45.420Z,0
2017-10-09T16:11:50.507Z,0
2017-10-09T16:16:55.255Z,0
2017-10-09T16:22:00.692Z,0
2017-10-09T16:27:06.462Z,0
2017-10-09T16:32:11.549Z,0
2017-10-09T16:37:16.638Z,0
2017-10-09T16:42:22.084Z,0
2017-10-09T16:47:27.174Z,0
2017-10-09T16:52:32.256Z,0
2017-10-09T16:57:37.337Z,0
2017-10-09T17:02:42.425Z,0
2017-10-09T17:07:48.203Z,0
2017-10-09T17:12:52.944Z,0
2017-10-09T17:17:57.707Z,0
2017-10-09T17:23:02.447Z,0
2017-10-09T17:28:06.847Z,0
2017-10-09T17:33:12.276Z,0
2017-10-09T17:38:17.357Z,0
2017-10-09T17:43:22.790Z,0
2017-10-09T17:48:28.215Z,0
2017-10-09T17:53:32.619Z,0
2017-10-09T17:58:38.403Z,0
2017-10-09T18:03:43.340Z,0
2017-10-09T18:08:48.770Z,0
2017-10-09T18:13:54.549Z,0
2017-10-09T18:18:59.291Z,0
2017-10-09T18:24:05.065Z,0
2017-10-09T18:29:10.148Z,0
2017-10-09T18:34:16.270Z,0
2017-10-09T18:39:22.045Z,0
2017-10-09T18:44:26.449Z,0
2017-10-09T18:49:31.552Z,0
2017-10-09T18:54:36.985Z,0
2017-10-09T18:59:41.731Z,0
2017-10-09T19:04:46.471Z,0
2017-10-09T19:09:51.922Z,0
2017-10-09T19:14:56.670Z,0
2017-10-09T19:20:02.793Z,0
2017-10-09T19:25:08.226Z,0
2017-10-09T19:30:14.055Z,0
2017-10-09T19:35:19.494Z,0
2017-10-09T19:40:24.591Z,0
2017-10-09T19:45:29.340Z,0
2017-10-09T19:50:34.808Z,0
2017-10-09T19:55:39.546Z,0
2017-10-09T20:00:45.001Z,0
2017-10-09T20:05:49.766Z,0
2017-10-09T20:10:54.644Z,0
2017-10-09T20:15:59.750Z,0
2017-10-09T20:21:04.501Z,0
2017-10-09T20:26:09.614Z,0
2017-10-09T20:31:15.396Z,0
2017-10-09T20:36:20.484Z,0
2017-10-09T20:41:25.948Z,0
2017-10-09T20:46:31.373Z,0
2017-10-09T20:51:36.463Z,0
2017-10-09T20:56:41.903Z,0
2017-10-09T21:01:46.990Z,0
2017-10-09T21:06:52.426Z,0
2017-10-09T21:11:57.858Z,0
2017-10-09T21:17:03.988Z,0
2017-10-09T21:22:09.638Z,0
2017-10-09T21:27:15.409Z,0
2017-10-09T21:32:20.841Z,0
2017-10-09T21:37:25.251Z,0
2017-10-09T21:42:29.360Z,0
2017-10-09T21:47:35.136Z,0
2017-10-09T21:52:39.543Z,0
2017-10-09T21:57:44.369Z,0
2017-10-09T22:02:50.587Z,0
2017-10-09T22:07:55.681Z,0
2017-10-09T22:13:01.116Z,0
2017-10-09T22:18:06.210Z,0
2017-10-09T22:23:12.341Z,0
2017-10-09T22:28:18.116Z,0
2017-10-09T22:33:23.205Z,0
2017-10-09T22:38:27.950Z,0
2017-10-09T22:43:33.813Z,0
2017-10-09T22:48:38.552Z,0
2017-10-09T22:53:43.660Z,0
2017-10-09T22:58:49.433Z,0
2017-10-09T23:03:54.524Z,0
2017-10-09T23:08:59.602Z,0
2017-10-09T23:14:05.383Z,0
2017-10-09T23:19:10.134Z,0
2017-10-09T23:24:15.566Z,0
2017-10-09T23:29:20.303Z,0
2017-10-09T23:34:25.386Z,0
2017-10-09T23:39:30.485Z,0
2017-10-09T23:44:35.568Z,0
2017-10-09T23:49:40.656Z,0
2017-10-09T23:54:46.785Z,0
2017-10-09T23:59:51.530Z,0
